createdAt,value
2017-12-17T00:00:09.904Z,0.7
2017-12-17T00:01:12.303Z,0.8
2017-12-17T00:02:14.719Z,0.7
2017-12-17T00:03:17.407Z,0.7
2017-12-17T00:04:19.816Z,0.7
2017-12-17T00:05:22.230Z,0.7
2017-12-17T00:06:24.913Z,0.7
2017-12-17T00:07:27.306Z,0.7
2017-12-17T00:08:29.726Z,0.6
2017-12-17T00:09:32.135Z,0.8
2017-12-17T00:10:34.829Z,0.8
2017-12-17T00:11:37.525Z,0.9
2017-12-17T00:12:39.934Z,0.8
2017-12-17T00:13:42.344Z,0.9
2017-12-17T00:14:45.056Z,0.8
2017-12-17T00:15:47.463Z,0.8
2017-12-17T00:16:49.851Z,0.7
2017-12-17T00:17:52.570Z,0.8
2017-12-17T00:18:54.981Z,0.9
2017-12-17T00:19:57.390Z,1
2017-12-17T00:20:59.802Z,1
2017-12-17T00:22:02.201Z,1
2017-12-17T00:23:04.615Z,1.1
2017-12-17T00:24:07.027Z,1
2017-12-17T00:25:09.430Z,1.1
2017-12-17T00:26:11.832Z,1.1
2017-12-17T00:27:14.237Z,1
2017-12-17T00:28:16.640Z,1
2017-12-17T00:29:19.354Z,1
2017-12-17T00:30:21.763Z,1.1
2017-12-17T00:31:24.159Z,1.2
2017-12-17T00:32:26.565Z,1.2
2017-12-17T00:33:28.978Z,1.2
2017-12-17T00:34:31.379Z,1.2
2017-12-17T00:35:33.781Z,1.2
2017-12-17T00:36:36.474Z,1.2
2017-12-17T00:37:38.881Z,1.2
2017-12-17T00:38:41.298Z,1.2
2017-12-17T00:39:43.705Z,1.2
2017-12-17T00:40:46.096Z,1.2
2017-12-17T00:41:48.514Z,1.2
2017-12-17T00:42:50.920Z,1.2
2017-12-17T00:43:53.328Z,1.2
2017-12-17T00:44:55.738Z,1.2
2017-12-17T00:45:58.427Z,1.2
2017-12-17T00:47:00.843Z,1.2
2017-12-17T00:48:03.257Z,1.2
2017-12-17T00:49:05.668Z,1.3
2017-12-17T00:50:08.092Z,1.2
2017-12-17T00:51:10.772Z,1.3
2017-12-17T00:52:13.183Z,1.3
2017-12-17T00:53:15.587Z,1.3
2017-12-17T00:54:17.987Z,1.2
2017-12-17T00:55:20.391Z,1.2
2017-12-17T00:56:22.801Z,1.2
2017-12-17T00:57:25.200Z,1.2
2017-12-17T00:58:27.620Z,1.2
2017-12-17T00:59:30.032Z,1.2
2017-12-17T01:00:32.720Z,1.2
2017-12-17T01:01:35.127Z,1.2
2017-12-17T01:02:37.531Z,1.2
2017-12-17T01:03:39.933Z,1.2
2017-12-17T01:04:42.342Z,1.2
2017-12-17T01:05:44.743Z,1.2
2017-12-17T01:06:47.149Z,1.2
2017-12-17T01:07:49.554Z,1.2
2017-12-17T01:08:51.963Z,1.3
2017-12-17T01:09:54.370Z,1.3
2017-12-17T01:10:56.784Z,1.2
2017-12-17T01:11:59.185Z,1.3
2017-12-17T01:13:01.878Z,1.2
2017-12-17T01:14:04.291Z,1.3
2017-12-17T01:15:06.694Z,1.3
2017-12-17T01:16:09.108Z,1.3
2017-12-17T01:17:11.516Z,1.3
2017-12-17T01:18:13.926Z,1.3
2017-12-17T01:19:16.909Z,1.3
2017-12-17T01:20:19.599Z,1.3
2017-12-17T01:21:22.002Z,1.3
2017-12-17T01:22:24.697Z,1.2
2017-12-17T01:23:27.382Z,1.2
2017-12-17T01:24:29.801Z,1.2
2017-12-17T01:25:32.205Z,1.2
2017-12-17T01:26:34.619Z,1.3
2017-12-17T01:27:37.027Z,1.2
2017-12-17T01:28:39.430Z,1.2
2017-12-17T01:29:41.833Z,1.2
2017-12-17T01:30:44.259Z,1.2
2017-12-17T01:31:46.662Z,1.1
2017-12-17T01:32:49.071Z,1.2
2017-12-17T01:33:51.480Z,1.1
2017-12-17T01:34:54.171Z,1.2
2017-12-17T01:35:56.578Z,1.1
2017-12-17T01:36:58.995Z,1.1
2017-12-17T01:38:01.678Z,1.1
2017-12-17T01:39:04.092Z,1.1
2017-12-17T01:40:06.498Z,1.1
2017-12-17T01:41:08.907Z,1.1
2017-12-17T01:42:11.590Z,1
2017-12-17T01:43:14.288Z,1
2017-12-17T01:44:16.701Z,0.9
2017-12-17T01:45:19.111Z,0.9
2017-12-17T01:46:21.517Z,0.9
2017-12-17T01:47:23.930Z,0.9
2017-12-17T01:48:26.332Z,0.8
2017-12-17T01:49:28.728Z,0.8
2017-12-17T01:50:31.135Z,0.8
2017-12-17T01:51:33.541Z,0.8
2017-12-17T01:52:35.942Z,0.8
2017-12-17T01:53:38.355Z,0.8
2017-12-17T01:54:40.761Z,0.7
2017-12-17T01:55:43.166Z,0.7
2017-12-17T01:56:45.657Z,0.7
2017-12-17T01:57:47.997Z,0.7
2017-12-17T01:58:50.398Z,0.7
2017-12-17T01:59:52.809Z,0.7
2017-12-17T02:00:55.608Z,0.7
2017-12-17T02:01:58.313Z,0.7
2017-12-17T02:03:00.732Z,0.6
2017-12-17T02:04:03.406Z,0.6
2017-12-17T02:05:05.820Z,0.6
2017-12-17T02:06:08.232Z,0.6
2017-12-17T02:07:10.631Z,0.6
2017-12-17T02:08:13.041Z,0.6
2017-12-17T02:09:15.442Z,0.6
2017-12-17T02:10:17.838Z,0.6
2017-12-17T02:11:20.260Z,0.5
2017-12-17T02:12:22.663Z,0.5
2017-12-17T02:13:25.066Z,0.5
2017-12-17T02:14:27.472Z,0.5
2017-12-17T02:15:29.888Z,0.5
2017-12-17T02:16:32.574Z,0.5
2017-12-17T02:17:34.978Z,0.5
2017-12-17T02:18:37.381Z,0.4
2017-12-17T02:19:39.781Z,0.4
2017-12-17T02:20:42.192Z,0.4
2017-12-17T02:21:44.607Z,0.4
2017-12-17T02:22:47.001Z,0.4
2017-12-17T02:23:49.407Z,0.4
2017-12-17T02:24:52.105Z,0.4
2017-12-17T02:25:54.801Z,0.4
2017-12-17T02:26:57.494Z,0.4
2017-12-17T02:27:59.898Z,0.4
2017-12-17T02:29:02.294Z,0.4
2017-12-17T02:30:04.711Z,0.4
2017-12-17T02:31:07.118Z,0.4
2017-12-17T02:32:09.524Z,0.4
2017-12-17T02:33:11.929Z,0.4
2017-12-17T02:34:14.616Z,0.3
2017-12-17T02:35:17.310Z,0.3
2017-12-17T02:36:19.713Z,0.3
2017-12-17T02:37:22.538Z,0.3
2017-12-17T02:38:25.333Z,0.3
2017-12-17T02:39:28.034Z,0.3
2017-12-17T02:40:30.448Z,0.4
2017-12-17T02:41:33.134Z,0.4
2017-12-17T02:42:35.831Z,0.4
2017-12-17T02:43:38.526Z,0.4
2017-12-17T02:44:41.229Z,0.4
2017-12-17T02:45:43.629Z,0.4
2017-12-17T02:46:46.333Z,0.4
2017-12-17T02:47:48.738Z,0.4
2017-12-17T02:48:51.143Z,0.4
2017-12-17T02:49:53.557Z,0.4
2017-12-17T02:50:56.708Z,0.4
2017-12-17T02:51:59.784Z,0.4
2017-12-17T02:53:02.450Z,0.4
2017-12-17T02:54:05.408Z,0.4
2017-12-17T02:55:07.843Z,0.4
2017-12-17T02:56:10.891Z,0.5
2017-12-17T02:57:13.307Z,0.5
2017-12-17T02:58:15.710Z,0.5
2017-12-17T02:59:18.162Z,0.5
2017-12-17T03:00:21.170Z,0.6
2017-12-17T03:01:23.758Z,0.6
2017-12-17T03:02:26.489Z,0.6
2017-12-17T03:03:29.444Z,0.5
2017-12-17T03:04:32.596Z,0.6
2017-12-17T03:05:36.102Z,0.6
2017-12-17T03:06:38.847Z,0.6
2017-12-17T03:07:41.464Z,0.6
2017-12-17T03:08:44.327Z,0.6
2017-12-17T03:09:47.312Z,0.6
2017-12-17T03:10:50.212Z,0.7
2017-12-17T03:11:52.999Z,0.6
2017-12-17T03:12:55.659Z,0.7
2017-12-17T03:13:58.443Z,0.6
2017-12-17T03:15:00.984Z,0.6
2017-12-17T03:16:03.402Z,0.7
2017-12-17T03:17:05.850Z,0.6
2017-12-17T03:18:08.380Z,0.6
2017-12-17T03:19:11.350Z,0.6
2017-12-17T03:20:14.271Z,0.6
2017-12-17T03:21:17.044Z,0.6
2017-12-17T03:22:19.598Z,0.6
2017-12-17T03:23:22.370Z,0.6
2017-12-17T03:24:24.813Z,0.7
2017-12-17T03:25:27.605Z,0.7
2017-12-17T03:26:30.416Z,0.7
2017-12-17T03:27:33.696Z,0.7
2017-12-17T03:28:36.230Z,0.7
2017-12-17T03:29:38.803Z,0.7
2017-12-17T03:30:41.587Z,0.7
2017-12-17T03:31:44.075Z,0.7
2017-12-17T03:32:46.602Z,0.7
2017-12-17T03:33:49.165Z,0.7
2017-12-17T03:34:51.617Z,0.7
2017-12-17T03:35:54.039Z,0.7
2017-12-17T03:36:56.440Z,0.7
2017-12-17T03:37:59.138Z,0.7
2017-12-17T03:39:01.557Z,0.7
2017-12-17T03:40:03.960Z,0.8
2017-12-17T03:41:06.953Z,0.8
2017-12-17T03:42:09.383Z,0.8
2017-12-17T03:43:11.795Z,0.8
2017-12-17T03:44:14.197Z,0.7
2017-12-17T03:45:16.605Z,0.7
2017-12-17T03:46:19.020Z,0.7
2017-12-17T03:47:21.432Z,0.8
2017-12-17T03:48:23.843Z,0.8
2017-12-17T03:49:26.254Z,0.8
2017-12-17T03:50:28.655Z,0.8
2017-12-17T03:51:31.396Z,0.8
2017-12-17T03:52:33.802Z,0.8
2017-12-17T03:53:36.202Z,0.8
2017-12-17T03:54:38.609Z,0.8
2017-12-17T03:55:41.016Z,0.8
2017-12-17T03:56:43.433Z,0.8
2017-12-17T03:57:45.834Z,0.8
2017-12-17T03:58:48.247Z,0.8
2017-12-17T03:59:50.649Z,0.8
2017-12-17T04:00:53.069Z,0.8
2017-12-17T04:01:55.468Z,0.8
2017-12-17T04:02:57.875Z,0.8
2017-12-17T04:04:00.280Z,0.8
2017-12-17T04:05:02.686Z,0.8
2017-12-17T04:06:05.095Z,0.9
2017-12-17T04:07:07.618Z,0.9
2017-12-17T04:08:10.223Z,0.9
2017-12-17T04:09:12.632Z,0.9
2017-12-17T04:10:15.036Z,0.9
2017-12-17T04:11:17.449Z,0.8
2017-12-17T04:12:19.853Z,0.9
2017-12-17T04:13:22.269Z,0.9
2017-12-17T04:14:24.679Z,0.9
2017-12-17T04:15:27.086Z,0.9
2017-12-17T04:16:29.496Z,0.9
2017-12-17T04:17:32.196Z,0.9
2017-12-17T04:18:34.604Z,0.9
2017-12-17T04:19:37.005Z,0.9
2017-12-17T04:20:39.414Z,1
2017-12-17T04:21:41.817Z,1
2017-12-17T04:22:44.215Z,1
2017-12-17T04:23:46.628Z,1
2017-12-17T04:24:49.023Z,1
2017-12-17T04:25:51.434Z,1
2017-12-17T04:26:53.852Z,1
2017-12-17T04:27:56.254Z,1
2017-12-17T04:28:58.958Z,1
2017-12-17T04:30:01.367Z,1
2017-12-17T04:31:03.773Z,1
2017-12-17T04:32:06.455Z,1
2017-12-17T04:33:08.871Z,1.1
2017-12-17T04:34:11.267Z,1.1
2017-12-17T04:35:13.683Z,1.1
2017-12-17T04:36:16.080Z,1.1
2017-12-17T04:37:18.487Z,1.1
2017-12-17T04:38:20.892Z,1.1
2017-12-17T04:39:23.302Z,1.1
2017-12-17T04:40:25.711Z,1.1
2017-12-17T04:41:28.125Z,1.1
2017-12-17T04:42:30.533Z,1.1
2017-12-17T04:43:32.941Z,1.1
2017-12-17T04:44:35.346Z,1.1
2017-12-17T04:45:37.757Z,1.1
2017-12-17T04:46:40.452Z,1.1
2017-12-17T04:47:42.860Z,1.1
2017-12-17T04:48:45.282Z,1.1
2017-12-17T04:49:47.961Z,1.1
2017-12-17T04:50:50.375Z,1.1
2017-12-17T04:51:52.784Z,1.1
2017-12-17T04:52:55.193Z,1.1
2017-12-17T04:53:57.599Z,1.1
2017-12-17T04:55:00.010Z,1.1
2017-12-17T04:56:02.700Z,1.1
2017-12-17T04:57:05.113Z,1.2
2017-12-17T04:58:07.522Z,1.1
2017-12-17T04:59:09.927Z,1.1
2017-12-17T05:00:12.344Z,1.1
2017-12-17T05:01:14.747Z,1.1
2017-12-17T05:02:17.427Z,1.1
2017-12-17T05:03:19.835Z,1.2
2017-12-17T05:04:22.245Z,1.2
2017-12-17T05:05:24.656Z,1.2
2017-12-17T05:06:27.060Z,1.2
2017-12-17T05:07:29.470Z,1.2
2017-12-17T05:08:31.884Z,1.2
2017-12-17T05:09:34.300Z,1.2
2017-12-17T05:10:36.706Z,1.1
2017-12-17T05:11:39.112Z,1.1
2017-12-17T05:12:41.519Z,1.2
2017-12-17T05:13:43.929Z,1.2
2017-12-17T05:14:46.352Z,1.2
2017-12-17T05:15:48.750Z,1.2
2017-12-17T05:16:51.156Z,1.2
2017-12-17T05:17:53.566Z,1.2
2017-12-17T05:18:55.962Z,1.2
2017-12-17T05:19:58.371Z,1.2
2017-12-17T05:21:01.077Z,1.2
2017-12-17T05:22:03.478Z,1.2
2017-12-17T05:23:05.897Z,1.2
2017-12-17T05:24:08.300Z,1.2
2017-12-17T05:25:10.715Z,1.2
2017-12-17T05:26:13.122Z,1.2
2017-12-17T05:27:15.838Z,1.2
2017-12-17T05:28:18.244Z,1.2
2017-12-17T05:29:20.650Z,1.2
2017-12-17T05:30:23.347Z,1.2
2017-12-17T05:31:26.059Z,1.2
2017-12-17T05:32:28.456Z,1.1
2017-12-17T05:33:30.873Z,1.1
2017-12-17T05:34:33.832Z,1.1
2017-12-17T05:35:36.247Z,1.1
2017-12-17T05:36:38.653Z,1.1
2017-12-17T05:37:41.346Z,1.1
2017-12-17T05:38:43.754Z,1.1
2017-12-17T05:39:46.182Z,1.1
2017-12-17T05:40:48.559Z,1.1
2017-12-17T05:41:50.971Z,1.1
2017-12-17T05:42:53.377Z,1.1
2017-12-17T05:43:55.788Z,1.1
2017-12-17T05:44:58.196Z,1
2017-12-17T05:46:00.606Z,1
2017-12-17T05:47:03.007Z,1
2017-12-17T05:48:05.418Z,1
2017-12-17T05:49:07.832Z,1
2017-12-17T05:50:10.234Z,1
2017-12-17T05:51:12.644Z,1
2017-12-17T05:52:15.366Z,0.9
2017-12-17T05:53:17.778Z,0.9
2017-12-17T05:54:20.183Z,0.9
2017-12-17T05:55:22.596Z,0.9
2017-12-17T05:56:25.279Z,0.9
2017-12-17T05:57:27.691Z,0.9
2017-12-17T05:58:30.095Z,0.9
2017-12-17T05:59:32.497Z,0.9
2017-12-17T06:00:34.901Z,0.9
2017-12-17T06:01:37.322Z,0.9
2017-12-17T06:02:39.715Z,0.9
2017-12-17T06:03:42.411Z,0.9
2017-12-17T06:04:44.817Z,0.9
2017-12-17T06:05:47.225Z,0.9
2017-12-17T06:06:49.646Z,0.9
2017-12-17T06:07:52.051Z,0.9
2017-12-17T06:08:54.449Z,0.9
2017-12-17T06:09:56.853Z,0.9
2017-12-17T06:10:59.257Z,0.9
2017-12-17T06:12:01.666Z,1
2017-12-17T06:13:04.061Z,0.9
2017-12-17T06:14:06.475Z,0.9
2017-12-17T06:15:08.879Z,0.9
2017-12-17T06:16:11.290Z,0.9
2017-12-17T06:17:13.694Z,0.9
2017-12-17T06:18:16.099Z,0.9
2017-12-17T06:19:18.555Z,0.9
2017-12-17T06:20:20.963Z,0.9
2017-12-17T06:21:23.363Z,0.9
2017-12-17T06:22:25.773Z,0.9
2017-12-17T06:23:28.462Z,0.9
2017-12-17T06:24:30.862Z,0.9
2017-12-17T06:25:33.265Z,0.9
2017-12-17T06:26:35.670Z,0.9
2017-12-17T06:27:38.080Z,0.9
2017-12-17T06:28:40.775Z,0.9
2017-12-17T06:29:43.188Z,0.9
2017-12-17T06:30:45.580Z,0.9
2017-12-17T06:31:47.993Z,0.9
2017-12-17T06:32:50.411Z,0.8
2017-12-17T06:33:52.814Z,0.9
2017-12-17T06:34:55.226Z,0.8
2017-12-17T06:35:57.640Z,0.8
2017-12-17T06:37:00.612Z,0.8
2017-12-17T06:38:03.019Z,0.8
2017-12-17T06:39:05.433Z,0.8
2017-12-17T06:40:07.827Z,0.8
2017-12-17T06:41:10.244Z,0.8
2017-12-17T06:42:12.656Z,0.8
2017-12-17T06:43:15.071Z,0.8
2017-12-17T06:44:17.749Z,0.8
2017-12-17T06:45:20.470Z,0.8
2017-12-17T06:46:22.877Z,0.8
2017-12-17T06:47:25.272Z,0.8
2017-12-17T06:48:27.688Z,0.8
2017-12-17T06:49:30.095Z,0.8
2017-12-17T06:50:32.492Z,0.8
2017-12-17T06:51:34.901Z,0.8
2017-12-17T06:52:37.593Z,0.8
2017-12-17T06:53:39.996Z,0.8
2017-12-17T06:54:42.413Z,0.9
2017-12-17T06:55:45.100Z,1
2017-12-17T06:56:47.516Z,1
2017-12-17T06:57:49.921Z,1
2017-12-17T06:58:52.319Z,1
2017-12-17T06:59:54.733Z,0.9
2017-12-17T07:00:57.146Z,0.9
2017-12-17T07:01:59.554Z,0.9
2017-12-17T07:03:02.249Z,0.9
2017-12-17T07:04:04.638Z,0.9
2017-12-17T07:05:07.053Z,0.9
2017-12-17T07:06:09.459Z,0.9
2017-12-17T07:07:11.868Z,0.9
2017-12-17T07:08:14.270Z,0.9
2017-12-17T07:09:16.676Z,0.9
2017-12-17T07:10:19.091Z,0.9
2017-12-17T07:11:21.500Z,0.9
2017-12-17T07:12:23.913Z,0.9
2017-12-17T07:13:26.306Z,0.9
2017-12-17T07:14:28.721Z,1
2017-12-17T07:15:31.134Z,0.9
2017-12-17T07:16:33.541Z,0.9
2017-12-17T07:17:35.948Z,0.9
2017-12-17T07:18:38.381Z,0.9
2017-12-17T07:19:40.785Z,1
2017-12-17T07:20:43.203Z,1
2017-12-17T07:21:45.606Z,0.9
2017-12-17T07:22:48.016Z,0.9
2017-12-17T07:23:50.426Z,0.9
2017-12-17T07:24:52.833Z,0.9
2017-12-17T07:25:55.526Z,1
2017-12-17T07:26:58.224Z,1
2017-12-17T07:28:00.620Z,0.9
2017-12-17T07:29:03.036Z,1
2017-12-17T07:30:05.451Z,0.9
2017-12-17T07:31:07.861Z,1
2017-12-17T07:32:10.274Z,1
2017-12-17T07:33:12.688Z,1
2017-12-17T07:34:15.100Z,0.9
2017-12-17T07:35:17.511Z,0.9
2017-12-17T07:36:19.909Z,0.9
2017-12-17T07:37:22.326Z,0.9
2017-12-17T07:38:24.728Z,0.9
2017-12-17T07:39:27.148Z,0.9
2017-12-17T07:40:29.561Z,0.9
2017-12-17T07:41:31.967Z,1
2017-12-17T07:42:34.375Z,0.9
2017-12-17T07:43:36.785Z,0.9
2017-12-17T07:44:39.188Z,0.9
2017-12-17T07:45:41.604Z,0.9
2017-12-17T07:46:44.006Z,0.9
2017-12-17T07:47:46.408Z,0.9
2017-12-17T07:48:49.114Z,0.9
2017-12-17T07:49:51.522Z,0.9
2017-12-17T07:50:53.935Z,0.9
2017-12-17T07:51:56.340Z,0.9
2017-12-17T07:52:58.755Z,0.9
2017-12-17T07:54:01.159Z,0.9
2017-12-17T07:55:03.575Z,0.9
2017-12-17T07:56:06.266Z,0.9
2017-12-17T07:57:08.677Z,0.9
2017-12-17T07:58:11.081Z,0.9
2017-12-17T07:59:14.044Z,1
2017-12-17T08:00:16.459Z,1
2017-12-17T08:01:18.871Z,1
2017-12-17T08:02:21.267Z,1
2017-12-17T08:03:23.682Z,1
2017-12-17T08:04:26.086Z,1
2017-12-17T08:05:29.075Z,1
2017-12-17T08:06:31.493Z,1
2017-12-17T08:07:33.901Z,1
2017-12-17T08:08:36.312Z,1
2017-12-17T08:09:38.730Z,1
2017-12-17T08:10:41.134Z,1
2017-12-17T08:11:43.832Z,1
2017-12-17T08:12:46.236Z,1
2017-12-17T08:13:48.939Z,1
2017-12-17T08:14:51.346Z,1
2017-12-17T08:15:53.754Z,1
2017-12-17T08:16:56.164Z,1.1
2017-12-17T08:17:58.576Z,1.1
2017-12-17T08:19:00.987Z,1.1
2017-12-17T08:20:03.408Z,1.1
2017-12-17T08:21:05.810Z,1
2017-12-17T08:22:08.215Z,1.1
2017-12-17T08:23:10.635Z,1.1
2017-12-17T08:24:13.043Z,1.1
2017-12-17T08:25:15.453Z,1.1
2017-12-17T08:26:17.870Z,1.1
2017-12-17T08:27:20.267Z,1.1
2017-12-17T08:28:22.684Z,1.1
2017-12-17T08:29:25.089Z,1.1
2017-12-17T08:30:27.500Z,1.2
2017-12-17T08:31:29.915Z,1.1
2017-12-17T08:32:32.319Z,1.2
2017-12-17T08:33:34.721Z,1.1
2017-12-17T08:34:37.141Z,1.1
2017-12-17T08:35:40.139Z,1.2
2017-12-17T08:36:42.902Z,1.2
2017-12-17T08:37:45.320Z,1.2
2017-12-17T08:38:48.017Z,1.2
2017-12-17T08:39:50.422Z,1.3
2017-12-17T08:40:53.135Z,1.3
2017-12-17T08:41:55.541Z,1.4
2017-12-17T08:42:57.957Z,1.4
2017-12-17T08:44:00.931Z,1.4
2017-12-17T08:45:03.342Z,1.4
2017-12-17T08:46:05.763Z,1.4
2017-12-17T08:47:08.473Z,1.4
2017-12-17T08:48:10.887Z,1.4
2017-12-17T08:49:13.315Z,1.4
2017-12-17T08:50:15.728Z,1.4
2017-12-17T08:51:18.139Z,1.4
2017-12-17T08:52:20.549Z,1.4
2017-12-17T08:53:22.948Z,1.4
2017-12-17T08:54:25.365Z,1.4
2017-12-17T08:55:27.768Z,1.5
2017-12-17T08:56:30.461Z,1.5
2017-12-17T08:57:32.880Z,1.4
2017-12-17T08:58:35.564Z,1.5
2017-12-17T08:59:37.976Z,1.5
2017-12-17T09:00:40.697Z,1.5
2017-12-17T09:01:43.385Z,1.5
2017-12-17T09:02:45.805Z,1.5
2017-12-17T09:03:48.221Z,1.5
2017-12-17T09:04:50.631Z,1.5
2017-12-17T09:05:53.054Z,1.5
2017-12-17T09:06:55.470Z,1.5
2017-12-17T09:07:58.147Z,1.6
2017-12-17T09:09:00.569Z,1.6
2017-12-17T09:10:02.967Z,1.6
2017-12-17T09:11:05.383Z,1.6
2017-12-17T09:12:07.849Z,1.6
2017-12-17T09:13:10.212Z,1.5
2017-12-17T09:14:12.616Z,1.5
2017-12-17T09:15:15.031Z,1.6
2017-12-17T09:16:17.445Z,1.6
2017-12-17T09:17:19.860Z,1.6
2017-12-17T09:18:22.267Z,1.5
2017-12-17T09:19:24.669Z,1.6
2017-12-17T09:20:27.076Z,1.6
2017-12-17T09:21:30.074Z,1.5
2017-12-17T09:22:32.478Z,1.6
2017-12-17T09:23:34.893Z,1.6
2017-12-17T09:24:37.296Z,1.6
2017-12-17T09:25:39.708Z,1.6
2017-12-17T09:26:42.122Z,1.7
2017-12-17T09:27:44.530Z,1.7
2017-12-17T09:28:47.238Z,1.7
2017-12-17T09:29:49.936Z,1.7
2017-12-17T09:30:52.343Z,1.7
2017-12-17T09:31:54.763Z,1.6
2017-12-17T09:32:57.173Z,1.7
2017-12-17T09:33:59.570Z,1.7
2017-12-17T09:35:02.274Z,1.7
2017-12-17T09:36:04.692Z,1.9
2017-12-17T09:37:07.095Z,1.9
2017-12-17T09:38:09.507Z,1.9
2017-12-17T09:39:11.913Z,1.8
2017-12-17T09:40:14.617Z,1.9
2017-12-17T09:41:17.027Z,1.9
2017-12-17T09:42:19.450Z,1.8
2017-12-17T09:43:21.863Z,1.8
2017-12-17T09:44:24.277Z,1.9
2017-12-17T09:45:26.684Z,1.9
2017-12-17T09:46:29.094Z,1.8
2017-12-17T09:47:31.499Z,1.8
2017-12-17T09:48:33.906Z,1.8
2017-12-17T09:49:36.314Z,1.8
2017-12-17T09:50:38.728Z,1.9
2017-12-17T09:51:41.133Z,1.9
2017-12-17T09:52:43.553Z,1.9
2017-12-17T09:53:45.951Z,1.9
2017-12-17T09:54:48.367Z,1.9
2017-12-17T09:55:51.076Z,1.9
2017-12-17T09:56:53.486Z,1.9
2017-12-17T09:57:55.899Z,1.8
2017-12-17T09:58:58.321Z,1.8
2017-12-17T10:00:00.735Z,1.9
2017-12-17T10:01:03.152Z,2
2017-12-17T10:02:05.567Z,2
2017-12-17T10:03:07.975Z,2
2017-12-17T10:04:10.391Z,1.9
2017-12-17T10:05:12.805Z,1.9
2017-12-17T10:06:15.209Z,1.9
2017-12-17T10:07:17.642Z,2
2017-12-17T10:08:20.041Z,2
2017-12-17T10:09:22.718Z,2
2017-12-17T10:10:25.427Z,2.1
2017-12-17T10:11:27.843Z,2.1
2017-12-17T10:12:30.546Z,2
2017-12-17T10:13:32.959Z,2
2017-12-17T10:14:35.371Z,2.1
2017-12-17T10:15:38.067Z,2.1
2017-12-17T10:16:40.489Z,2.2
2017-12-17T10:17:42.895Z,2.1
2017-12-17T10:18:45.301Z,2.1
2017-12-17T10:19:48.001Z,2.1
2017-12-17T10:20:50.413Z,2.1
2017-12-17T10:21:52.827Z,2.1
2017-12-17T10:22:55.533Z,2.2
2017-12-17T10:23:57.936Z,2
2017-12-17T10:25:00.366Z,2.1
2017-12-17T10:26:02.778Z,2.2
2017-12-17T10:27:05.195Z,2.3
2017-12-17T10:28:07.604Z,2.4
2017-12-17T10:29:10.025Z,2.3
2017-12-17T10:30:12.434Z,2.3
2017-12-17T10:31:14.858Z,2.3
2017-12-17T10:32:17.551Z,2.2
2017-12-17T10:33:19.960Z,2.3
2017-12-17T10:34:22.372Z,2.3
2017-12-17T10:35:24.786Z,2.3
2017-12-17T10:36:27.205Z,2.3
2017-12-17T10:37:29.901Z,2.4
2017-12-17T10:38:32.620Z,2.4
2017-12-17T10:39:35.602Z,2.5
2017-12-17T10:40:38.001Z,2.4
2017-12-17T10:41:40.417Z,2.4
2017-12-17T10:42:42.843Z,2.3
2017-12-17T10:43:45.249Z,2.3
2017-12-17T10:44:47.656Z,2.3
2017-12-17T10:45:50.061Z,2.3
2017-12-17T10:46:52.473Z,2.4
2017-12-17T10:47:55.169Z,2.4
2017-12-17T10:48:57.587Z,2.4
2017-12-17T10:49:59.991Z,2.4
2017-12-17T10:51:02.691Z,2.4
2017-12-17T10:52:05.115Z,2.3
2017-12-17T10:53:07.830Z,2.2
2017-12-17T10:54:10.542Z,2.2
2017-12-17T10:55:12.956Z,2.3
2017-12-17T10:56:15.374Z,2.3
2017-12-17T10:57:17.800Z,2.2
2017-12-17T10:58:20.207Z,2.2
2017-12-17T10:59:22.615Z,2.2
2017-12-17T11:00:25.022Z,2.3
2017-12-17T11:01:27.434Z,2.4
2017-12-17T11:02:30.409Z,2.4
2017-12-17T11:03:32.821Z,2.3
2017-12-17T11:04:35.218Z,2.3
2017-12-17T11:05:37.839Z,2.3
2017-12-17T11:06:40.261Z,2.4
2017-12-17T11:07:42.679Z,2.3
2017-12-17T11:08:45.392Z,2.4
2017-12-17T11:09:47.799Z,2.4
2017-12-17T11:10:50.221Z,2.4
2017-12-17T11:11:52.622Z,2.4
2017-12-17T11:12:55.316Z,2.3
2017-12-17T11:13:57.742Z,2.3
2017-12-17T11:15:00.145Z,2.4
2017-12-17T11:16:02.555Z,2.4
2017-12-17T11:17:04.975Z,2.4
2017-12-17T11:18:07.387Z,2.3
2017-12-17T11:19:09.806Z,2.4
2017-12-17T11:20:12.225Z,2.3
2017-12-17T11:21:14.914Z,2.3
2017-12-17T11:22:17.334Z,2.3
2017-12-17T11:23:19.733Z,2.4
2017-12-17T11:24:22.148Z,2.5
2017-12-17T11:25:24.567Z,2.5
2017-12-17T11:26:26.973Z,2.5
2017-12-17T11:27:29.720Z,2.5
2017-12-17T11:28:32.133Z,2.5
2017-12-17T11:29:34.537Z,2.5
2017-12-17T11:30:37.469Z,2.5
2017-12-17T11:31:39.875Z,2.6
2017-12-17T11:32:42.285Z,2.5
2017-12-17T11:33:44.695Z,2.6
2017-12-17T11:34:47.115Z,2.6
2017-12-17T11:35:49.532Z,2.5
2017-12-17T11:36:51.943Z,2.4
2017-12-17T11:37:54.355Z,2.3
2017-12-17T11:38:56.770Z,2.3
2017-12-17T11:39:59.163Z,2.3
2017-12-17T11:41:01.577Z,2.3
2017-12-17T11:42:04.273Z,2.3
2017-12-17T11:43:06.686Z,2.4
2017-12-17T11:44:09.098Z,2.5
2017-12-17T11:45:11.509Z,2.6
2017-12-17T11:46:13.926Z,2.7
2017-12-17T11:47:16.347Z,2.7
2017-12-17T11:48:18.758Z,2.8
2017-12-17T11:49:21.163Z,3
2017-12-17T11:50:23.573Z,3.2
2017-12-17T11:51:25.988Z,3.3
2017-12-17T11:52:28.403Z,3.5
2017-12-17T11:53:30.814Z,3.7
2017-12-17T11:54:33.219Z,3.6
2017-12-17T11:55:35.630Z,3.7
2017-12-17T11:56:38.051Z,3.9
2017-12-17T11:57:40.464Z,4.1
2017-12-17T11:58:43.149Z,4.2
2017-12-17T11:59:45.563Z,4.4
2017-12-17T12:00:47.974Z,4.5
2017-12-17T12:01:50.394Z,4.3
2017-12-17T12:02:52.808Z,4
2017-12-17T12:03:55.259Z,4
2017-12-17T12:04:57.624Z,4
2017-12-17T12:06:00.055Z,4
2017-12-17T12:07:02.463Z,3.9
2017-12-17T12:08:04.878Z,3.6
2017-12-17T12:09:07.295Z,3.6
2017-12-17T12:10:09.707Z,3.7
2017-12-17T12:11:12.108Z,3.6
2017-12-17T12:12:14.534Z,3.5
2017-12-17T12:13:16.957Z,3.6
2017-12-17T12:14:19.651Z,3.4
2017-12-17T12:15:22.074Z,3.5
2017-12-17T12:16:24.503Z,3.6
2017-12-17T12:17:26.916Z,3.4
2017-12-17T12:18:29.330Z,3.4
2017-12-17T12:19:31.733Z,3.4
2017-12-17T12:20:34.152Z,3.4
2017-12-17T12:21:36.568Z,3.5
2017-12-17T12:22:39.265Z,3.4
2017-12-17T12:23:41.677Z,3.5
2017-12-17T12:24:44.093Z,3.4
2017-12-17T12:25:46.794Z,3.4
2017-12-17T12:26:49.484Z,3.3
2017-12-17T12:27:51.899Z,3.2
2017-12-17T12:28:54.619Z,3.2
2017-12-17T12:29:57.050Z,3.2
2017-12-17T12:30:59.453Z,3.1
2017-12-17T12:32:02.502Z,3
2017-12-17T12:33:04.914Z,3
2017-12-17T12:34:07.328Z,2.9
2017-12-17T12:35:09.743Z,2.9
2017-12-17T12:36:12.148Z,2.9
2017-12-17T12:37:14.579Z,2.8
2017-12-17T12:38:17.278Z,2.9
2017-12-17T12:39:19.696Z,2.9
2017-12-17T12:40:22.116Z,2.9
2017-12-17T12:41:24.528Z,2.8
2017-12-17T12:42:26.943Z,2.9
2017-12-17T12:43:29.370Z,2.8
2017-12-17T12:44:31.773Z,2.7
2017-12-17T12:45:34.189Z,2.7
2017-12-17T12:46:36.610Z,2.7
2017-12-17T12:47:39.320Z,2.8
2017-12-17T12:48:41.730Z,2.8
2017-12-17T12:49:44.142Z,2.8
2017-12-17T12:50:46.549Z,2.8
2017-12-17T12:51:48.960Z,2.8
2017-12-17T12:52:51.372Z,2.8
2017-12-17T12:53:53.788Z,2.7
2017-12-17T12:54:56.217Z,2.6
2017-12-17T12:55:58.636Z,2.7
2017-12-17T12:57:01.050Z,2.8
2017-12-17T12:58:03.463Z,2.8
2017-12-17T12:59:05.882Z,2.6
2017-12-17T13:00:08.289Z,2.6
2017-12-17T13:01:10.706Z,2.6
2017-12-17T13:02:13.401Z,2.6
2017-12-17T13:03:15.812Z,2.6
2017-12-17T13:04:18.499Z,2.6
2017-12-17T13:05:20.916Z,2.5
2017-12-17T13:06:23.336Z,2.5
2017-12-17T13:07:25.747Z,2.6
2017-12-17T13:08:28.157Z,2.5
2017-12-17T13:09:30.849Z,2.5
2017-12-17T13:10:33.268Z,2.5
2017-12-17T13:11:35.681Z,2.6
2017-12-17T13:12:38.126Z,2.6
2017-12-17T13:13:40.841Z,2.6
2017-12-17T13:14:43.257Z,2.5
2017-12-17T13:15:45.968Z,2.5
2017-12-17T13:16:48.676Z,2.5
2017-12-17T13:17:51.358Z,2.4
2017-12-17T13:18:53.774Z,2.3
2017-12-17T13:19:56.198Z,2.4
2017-12-17T13:20:58.611Z,2.3
2017-12-17T13:22:01.018Z,2.3
2017-12-17T13:23:03.725Z,2.3
2017-12-17T13:24:06.137Z,2.4
2017-12-17T13:25:08.547Z,2.3
2017-12-17T13:26:10.969Z,2.3
2017-12-17T13:27:13.669Z,2.3
2017-12-17T13:28:16.370Z,2.3
2017-12-17T13:29:18.783Z,2.3
2017-12-17T13:30:21.188Z,2.3
2017-12-17T13:31:23.602Z,2.4
2017-12-17T13:32:26.018Z,2.3
2017-12-17T13:33:28.428Z,2.3
2017-12-17T13:34:30.848Z,2.2
2017-12-17T13:35:33.269Z,2.2
2017-12-17T13:36:35.680Z,2.3
2017-12-17T13:37:38.094Z,2.4
2017-12-17T13:38:40.510Z,2.3
2017-12-17T13:39:42.924Z,2.3
2017-12-17T13:40:45.336Z,2.3
2017-12-17T13:41:47.752Z,2.3
2017-12-17T13:42:50.150Z,2.2
2017-12-17T13:43:52.585Z,2.3
2017-12-17T13:44:55.285Z,2.3
2017-12-17T13:45:57.984Z,2.2
2017-12-17T13:47:00.400Z,2.2
2017-12-17T13:48:02.811Z,2.2
2017-12-17T13:49:05.222Z,2.3
2017-12-17T13:50:07.642Z,2.3
2017-12-17T13:51:10.055Z,2.3
2017-12-17T13:52:12.477Z,2.3
2017-12-17T13:53:14.897Z,2.3
2017-12-17T13:54:17.316Z,2.2
2017-12-17T13:55:19.720Z,2.2
2017-12-17T13:56:22.416Z,2.2
2017-12-17T13:57:24.827Z,2.2
2017-12-17T13:58:27.240Z,2.2
2017-12-17T13:59:29.643Z,2.2
2017-12-17T14:00:32.344Z,2.3
2017-12-17T14:01:34.751Z,2.2
2017-12-17T14:02:37.172Z,2.3
2017-12-17T14:03:39.582Z,2.2
2017-12-17T14:04:42.301Z,2.2
2017-12-17T14:05:44.721Z,2.3
2017-12-17T14:06:47.135Z,2.3
2017-12-17T14:07:49.827Z,2.3
2017-12-17T14:08:52.243Z,2.3
2017-12-17T14:09:54.652Z,2.3
2017-12-17T14:10:57.057Z,2.3
2017-12-17T14:11:59.463Z,2.2
2017-12-17T14:13:01.876Z,2.3
2017-12-17T14:14:04.571Z,2.3
2017-12-17T14:15:06.991Z,2.4
2017-12-17T14:16:09.396Z,2.3
2017-12-17T14:17:11.802Z,2.3
2017-12-17T14:18:14.220Z,2.3
2017-12-17T14:19:16.634Z,2.3
2017-12-17T14:20:19.232Z,2.4
2017-12-17T14:21:21.989Z,2.4
2017-12-17T14:22:24.406Z,2.4
2017-12-17T14:23:26.811Z,2.4
2017-12-17T14:24:29.222Z,2.3
2017-12-17T14:25:31.638Z,2.3